Time;durP1;ratioP1;P1;durP2;ratioP2;P2;SDS_P1;SDS_P2;PMS_P1;PMS_P2;Temp;Humidity;BMP_temperature;BMP_pressure;BME280_temperature;BME280_humidity;BME280_pressure;Samples;Min_cycle;Max_cycle;Signal;HPM_P1;HPM_P2
2024/01/16 00:00:07;;;;;;;;;66.00;52.00;;;;;;;;5043343;28;46115;-83
2024/01/16 00:02:32;;;;;;;;;56.00;45.00;;;;;;;;5031254;28;45341;-83
2024/01/16 00:04:57;;;;;;;;;67.33;52.33;;;;;;;;5034889;28;45372;-83
2024/01/16 00:07:22;;;;;;;;;61.67;50.00;;;;;;;;5055878;28;45247;-83
2024/01/16 00:09:48;;;;;;;;;64.00;50.67;;;;;;;;5026231;28;47297;-83
2024/01/16 00:12:13;;;;;;;;;50.67;46.00;;;;;;;;5021566;28;45248;-83
2024/01/16 00:14:38;;;;;;;;;57.33;49.00;;;;;;;;5050542;28;45418;-83
2024/01/16 00:17:03;;;;;;;;;61.00;48.33;;;;;;;;5056146;28;45297;-83
2024/01/16 00:19:29;;;;;;;;;56.50;47.00;;;;;;;;5035541;28;47305;-83
2024/01/16 00:21:54;;;;;;;;;61.50;48.00;;;;;;;;5052311;28;45220;-83
2024/01/16 00:24:19;;;;;;;;;49.75;45.75;;;;;;;;5024209;28;45236;-83
2024/01/16 00:26:46;;;;;;;;;59.67;47.67;;;;;;;;5057785;28;45248;-83
2024/01/16 00:29:12;;;;;;;;;57.50;48.75;;;;;;;;5024725;28;47552;-83
2024/01/16 00:31:37;;;;;;;;;62.25;50.50;;;;;;;;5051923;28;45251;-83
2024/01/16 00:34:03;;;;;;;;;60.25;47.50;;;;;;;;5052388;28;45573;-83
2024/01/16 00:36:28;;;;;;;;;64.50;52.00;;;;;;;;5032790;28;45575;-83
2024/01/16 00:38:53;;;;;;;;;24.00;21.33;;;;;;;;5034272;28;47187;-83
2024/01/16 00:41:18;;;;;;;;;64.00;51.33;;;;;;;;5039788;28;45851;-83
2024/01/16 00:43:44;;;;;;;;;65.33;49.67;;;;;;;;5056132;28;45441;-83
2024/01/16 00:46:09;;;;;;;;;67.50;55.25;;;;;;;;5039596;28;45535;-83
2024/01/16 00:48:34;;;;;;;;;62.67;50.00;;;;;;;;5056110;28;46162;-84
2024/01/16 00:50:59;;;;;;;;;68.33;57.00;;;;;;;;5032501;28;45294;-83
2024/01/16 00:53:26;;;;;;;;;73.67;57.00;;;;;;;;5052114;28;45549;-83
2024/01/16 00:55:52;;;;;;;;;66.75;56.00;;;;;;;;5042328;28;45430;-81
2024/01/16 00:58:17;;;;;;;;;62.75;51.75;;;;;;;;5048556;28;45310;-81
2024/01/16 01:00:42;;;;;;;;;65.33;51.33;;;;;;;;5056128;28;45321;-81
2024/01/16 01:03:07;;;;;;;;;60.33;49.33;;;;;;;;5056918;28;45291;-81
2024/01/16 01:05:32;;;;;;;;;64.67;51.00;;;;;;;;5056590;28;45642;-81
2024/01/16 01:07:58;;;;;;;;;69.00;53.67;;;;;;;;5038986;28;46016;-81
2024/01/16 01:10:23;;;;;;;;;64.75;52.00;;;;;;;;5043890;28;45240;-81
2024/01/16 01:12:48;;;;;;;;;73.33;56.33;;;;;;;;5043668;28;45236;-81
2024/01/16 01:15:14;;;;;;;;;60.25;49.00;;;;;;;;5058806;28;45318;-81
2024/01/16 01:17:39;;;;;;;;;67.67;55.33;;;;;;;;5056295;28;46536;-81
2024/01/16 01:20:05;;;;;;;;;57.00;47.75;;;;;;;;5040586;28;45202;-82
2024/01/16 01:22:30;;;;;;;;;74.00;54.75;;;;;;;;5051834;28;45235;-81
2024/01/16 01:24:55;;;;;;;;;64.67;52.00;;;;;;;;5047092;28;45193;-82
2024/01/16 01:27:20;;;;;;;;;75.67;57.00;;;;;;;;5039815;28;48331;-82
2024/01/16 01:29:46;;;;;;;;;64.00;51.67;;;;;;;;5029984;28;45228;-81
2024/01/16 01:32:11;;;;;;;;;60.50;50.00;;;;;;;;5049609;28;45220;-81
2024/01/16 01:34:38;;;;;;;;;62.00;50.67;;;;;;;;5052117;28;45231;-81
2024/01/16 01:37:03;;;;;;;;;63.50;52.25;;;;;;;;5042549;28;46074;-82
2024/01/16 01:39:28;;;;;;;;;61.67;48.67;;;;;;;;5059835;28;45391;-82
2024/01/16 01:41:54;;;;;;;;;57.67;44.67;;;;;;;;5030296;28;45485;-82
2024/01/16 01:44:19;;;;;;;;;79.00;60.00;;;;;;;;5059484;28;45425;-82
2024/01/16 01:46:45;;;;;;;;;82.00;63.00;;;;;;;;5058940;28;45330;-82
2024/01/16 01:49:12;;;;;;;;;80.00;60.50;;;;;;;;5047610;28;45263;-82
2024/01/16 01:51:37;;;;;;;;;74.00;58.25;;;;;;;;5040909;28;45292;-82
2024/01/16 01:54:02;;;;;;;;;75.33;60.33;;;;;;;;5057723;28;45369;-82
2024/01/16 01:56:27;;;;;;;;;67.00;50.67;;;;;;;;5042308;28;45469;-82
2024/01/16 01:58:53;;;;;;;;;62.00;46.50;;;;;;;;5055391;28;45339;-82
2024/01/16 02:01:19;;;;;;;;;60.25;49.25;;;;;;;;5056824;28;45323;-81
2024/01/16 02:03:45;;;;;;;;;61.75;51.25;;;;;;;;5038546;28;45262;-81
2024/01/16 02:06:11;;;;;;;;;57.25;46.75;;;;;;;;5050989;28;45554;-82
2024/01/16 02:08:37;;;;;;;;;47.50;44.50;;;;;;;;5032654;28;46025;-82
2024/01/16 02:11:02;;;;;;;;;69.25;56.00;;;;;;;;5041673;28;45263;-81
2024/01/16 02:13:27;;;;;;;;;70.00;52.67;;;;;;;;5044239;28;45436;-81
2024/01/16 02:15:53;;;;;;;;;64.25;51.75;;;;;;;;5025471;28;47361;-81
2024/01/16 02:18:18;;;;;;;;;58.33;49.33;;;;;;;;5043604;28;45592;-81
2024/01/16 02:20:43;;;;;;;;;56.33;45.67;;;;;;;;5024510;28;45329;-81
2024/01/16 02:23:09;;;;;;;;;55.00;46.00;;;;;;;;5036316;28;45802;-82
2024/01/16 02:25:35;;;;;;;;;47.25;40.75;;;;;;;;5052439;28;45345;-82
2024/01/16 02:28:01;;;;;;;;;56.00;47.50;;;;;;;;5034382;28;45364;-82
2024/01/16 02:30:26;;;;;;;;;67.50;51.00;;;;;;;;5040641;28;46442;-81
2024/01/16 02:32:51;;;;;;;;;64.67;51.00;;;;;;;;5048876;28;45527;-81
2024/01/16 02:35:18;;;;;;;;;57.00;49.00;;;;;;;;5048813;28;45460;-81
2024/01/16 02:37:43;;;;;;;;;59.50;49.00;;;;;;;;5058731;28;45332;-81
2024/01/16 02:40:09;;;;;;;;;55.25;45.25;;;;;;;;5059179;28;45397;-82
2024/01/16 02:42:34;;;;;;;;;57.75;47.50;;;;;;;;5058714;28;45330;-82
2024/01/16 02:45:00;;;;;;;;;54.50;45.25;;;;;;;;5041022;28;47978;-81
2024/01/16 02:47:25;;;;;;;;;55.00;45.50;;;;;;;;5058919;28;45274;-81
2024/01/16 02:49:50;;;;;;;;;48.00;41.67;;;;;;;;5041127;28;45359;-81
2024/01/16 02:52:15;;;;;;;;;49.00;41.67;;;;;;;;5052371;28;45571;-82
2024/01/16 02:54:41;;;;;;;;;46.00;43.00;;;;;;;;5027234;28;46110;-81
2024/01/16 02:57:06;;;;;;;;;50.75;43.25;;;;;;;;5045718;28;45415;-82
2024/01/16 02:59:31;;;;;;;;;56.33;46.33;;;;;;;;5035666;28;45327;-81
2024/01/16 03:01:56;;;;;;;;;55.75;47.50;;;;;;;;5043089;28;45307;-81
2024/01/16 03:04:22;;;;;;;;;37.67;35.67;;;;;;;;5053694;28;45372;-81
2024/01/16 03:06:47;;;;;;;;;45.33;39.00;;;;;;;;5053068;28;45181;-81
2024/01/16 03:09:12;;;;;;;;;43.67;41.33;;;;;;;;5030171;28;45446;-81
2024/01/16 03:11:37;;;;;;;;;48.67;41.00;;;;;;;;5043430;28;45589;-81
2024/01/16 03:14:03;;;;;;;;;55.00;46.67;;;;;;;;5049335;28;45404;-82
2024/01/16 03:16:28;;;;;;;;;55.25;47.00;;;;;;;;5018496;28;45423;-81
2024/01/16 03:18:54;;;;;;;;;60.25;47.75;;;;;;;;5049324;28;46524;-82
2024/01/16 03:21:19;;;;;;;;;47.00;44.00;;;;;;;;5052339;28;45465;-81
2024/01/16 03:23:44;;;;;;;;;50.33;46.00;;;;;;;;5045047;28;46231;-81
2024/01/16 03:26:13;;;;;;;;;54.00;44.67;;;;;;;;5054280;28;45221;-81
2024/01/16 03:28:39;;;;;;;;;54.75;45.50;;;;;;;;5046418;28;45250;-81
2024/01/16 03:31:04;;;;;;;;;52.50;41.50;;;;;;;;5021876;28;45457;-81
2024/01/16 03:33:30;;;;;;;;;52.75;46.75;;;;;;;;5049407;28;47036;-82
2024/01/16 03:35:55;;;;;;;;;56.33;45.67;;;;;;;;5044258;28;45240;-82
2024/01/16 03:38:20;;;;;;;;;62.33;47.67;;;;;;;;5058233;28;45708;-81
2024/01/16 03:40:45;;;;;;;;;62.67;49.00;;;;;;;;5056556;28;45254;-82
2024/01/16 03:43:11;;;;;;;;;62.67;49.33;;;;;;;;5039575;28;48149;-82
2024/01/16 03:45:36;;;;;;;;;53.67;45.00;;;;;;;;5056559;28;45319;-82
2024/01/16 03:48:02;;;;;;;;;59.67;46.33;;;;;;;;5040108;28;45311;-82
2024/01/16 03:50:28;;;;;;;;;55.75;45.25;;;;;;;;5038758;28;45259;-81
2024/01/16 03:52:53;;;;;;;;;50.67;41.33;;;;;;;;5029049;28;47351;-81
2024/01/16 03:55:18;;;;;;;;;44.33;41.67;;;;;;;;5027439;28;45528;-81
2024/01/16 03:57:43;;;;;;;;;62.33;50.33;;;;;;;;5029497;28;45266;-82
2024/01/16 04:00:12;;;;;;;;;60.33;46.67;;;;;;;;5026536;28;45923;-82
2024/01/16 04:02:38;;;;;;;;;56.00;45.25;;;;;;;;5030225;28;48289;-81
2024/01/16 04:05:03;;;;;;;;;49.50;42.75;;;;;;;;5034139;28;45503;-82
2024/01/16 04:07:28;;;;;;;;;55.25;46.00;;;;;;;;5055940;28;45381;-82
2024/01/16 04:09:53;;;;;;;;;57.33;42.00;;;;;;;;5023848;28;46161;-82
2024/01/16 04:12:19;;;;;;;;;47.33;42.33;;;;;;;;5040223;28;46830;-82
2024/01/16 04:14:44;;;;;;;;;47.67;40.33;;;;;;;;5052063;28;45367;-82
2024/01/16 04:17:09;;;;;;;;;56.33;45.00;;;;;;;;5056181;28;45453;-81
2024/01/16 04:19:34;;;;;;;;;58.67;41.67;;;;;;;;5035271;28;45354;-82
2024/01/16 04:22:00;;;;;;;;;47.25;43.25;;;;;;;;5038328;28;47903;-82
2024/01/16 04:24:26;;;;;;;;;51.75;44.00;;;;;;;;5024734;28;45245;-82
2024/01/16 04:26:51;;;;;;;;;58.00;46.00;;;;;;;;5040520;28;45331;-82
2024/01/16 04:29:16;;;;;;;;;68.00;54.67;;;;;;;;5044348;28;45326;-82
2024/01/16 04:31:41;;;;;;;;;60.67;48.00;;;;;;;;5051841;28;46441;-81
2024/01/16 04:34:07;;;;;;;;;58.00;49.67;;;;;;;;5039081;28;45358;-82
2024/01/16 04:36:32;;;;;;;;;47.25;41.75;;;;;;;;5059580;28;45308;-81
2024/01/16 04:38:57;;;;;;;;;47.00;41.50;;;;;;;;5061042;28;45462;-81
2024/01/16 04:41:23;;;;;;;;;45.00;39.75;;;;;;;;5033583;28;48036;-81
2024/01/16 04:43:49;;;;;;;;;53.50;44.25;;;;;;;;5060812;28;45247;-81
2024/01/16 04:46:15;;;;;;;;;54.25;44.00;;;;;;;;5043930;28;45364;-81
2024/01/16 04:48:40;;;;;;;;;45.75;36.75;;;;;;;;5043158;28;45394;-81
2024/01/16 04:51:07;;;;;;;;;48.67;41.00;;;;;;;;5061576;28;46224;-82
2024/01/16 04:53:32;;;;;;;;;47.50;39.75;;;;;;;;5030201;28;45411;-82
2024/01/16 04:55:57;;;;;;;;;46.67;40.67;;;;;;;;5045981;28;45278;-82
2024/01/16 04:58:23;;;;;;;;;50.33;40.67;;;;;;;;5052283;28;45493;-82
2024/01/16 05:00:48;;;;;;;;;43.67;40.67;;;;;;;;5058740;28;45314;-81
2024/01/16 05:03:13;;;;;;;;;51.33;41.33;;;;;;;;5039795;28;45483;-81
2024/01/16 05:05:38;;;;;;;;;42.00;40.33;;;;;;;;5048273;28;45706;-81
2024/01/16 05:08:03;;;;;;;;;50.67;44.00;;;;;;;;5049160;28;45541;-82
2024/01/16 05:10:29;;;;;;;;;56.67;44.67;;;;;;;;5024338;28;48230;-81
2024/01/16 05:12:54;;;;;;;;;52.67;44.00;;;;;;;;5044107;28;45461;-81
2024/01/16 05:15:20;;;;;;;;;49.00;43.33;;;;;;;;5041505;28;45322;-81
2024/01/16 05:17:45;;;;;;;;;59.50;47.00;;;;;;;;5056804;28;45326;-81
2024/01/16 05:20:10;;;;;;;;;48.33;44.33;;;;;;;;5041555;28;47159;-81
2024/01/16 05:22:35;;;;;;;;;49.75;43.50;;;;;;;;5055599;28;45402;-81
2024/01/16 05:25:01;;;;;;;;;53.00;42.00;;;;;;;;5049357;28;45189;-81
2024/01/16 05:27:26;;;;;;;;;48.67;43.00;;;;;;;;5044327;28;45269;-81
2024/01/16 05:29:51;;;;;;;;;56.67;48.67;;;;;;;;5041710;28;48077;-81
2024/01/16 05:32:17;;;;;;;;;65.67;55.00;;;;;;;;5040834;28;45454;-81
2024/01/16 05:34:42;;;;;;;;;58.75;47.25;;;;;;;;5035391;28;45445;-81
2024/01/16 05:37:07;;;;;;;;;67.00;55.00;;;;;;;;5055291;28;45265;-81
2024/01/16 05:39:32;;;;;;;;;70.00;58.00;;;;;;;;5060952;28;45419;-81
2024/01/16 05:41:57;;;;;;;;;66.00;53.33;;;;;;;;5060649;28;45333;-81
2024/01/16 05:44:23;;;;;;;;;60.75;51.00;;;;;;;;5060881;28;45335;-81
2024/01/16 05:46:48;;;;;;;;;79.00;61.00;;;;;;;;5060109;28;45726;-81
2024/01/16 05:49:13;;;;;;;;;78.00;60.33;;;;;;;;5041656;28;47756;-82
2024/01/16 05:51:38;;;;;;;;;75.67;61.00;;;;;;;;5040748;28;45608;-81
2024/01/16 05:54:03;;;;;;;;;76.00;62.00;;;;;;;;5046812;28;45417;-81
2024/01/16 05:56:30;;;;;;;;;79.33;64.33;;;;;;;;5042294;28;45407;-82
2024/01/16 05:59:01;;;;;;;;;83.25;63.75;;;;;;;;5039186;28;46167;-81
2024/01/16 06:01:29;;;;;;;;;84.75;65.50;;;;;;;;5046597;28;45326;-82
2024/01/16 06:03:55;;;;;;;;;85.25;66.50;;;;;;;;5039284;28;45316;-81
2024/01/16 06:06:20;;;;;;;;;84.00;66.67;;;;;;;;5054211;28;45490;-81
2024/01/16 06:08:45;;;;;;;;;85.67;67.33;;;;;;;;5048196;28;46898;-81
2024/01/16 06:11:11;;;;;;;;;84.33;66.67;;;;;;;;5023679;28;45295;-81
2024/01/16 06:13:36;;;;;;;;;92.25;71.00;;;;;;;;5039029;28;45405;-81
2024/01/16 06:16:02;;;;;;;;;93.33;72.00;;;;;;;;5053327;28;45258;-81
2024/01/16 06:18:27;;;;;;;;;88.25;69.75;;;;;;;;5038554;28;47177;-81
2024/01/16 06:20:52;;;;;;;;;90.00;70.33;;;;;;;;5053483;28;45262;-81
2024/01/16 06:23:17;;;;;;;;;98.33;72.00;;;;;;;;5039536;28;45369;-81
2024/01/16 06:25:43;;;;;;;;;96.33;76.33;;;;;;;;5050521;28;45371;-81
2024/01/16 06:28:08;;;;;;;;;87.67;70.33;;;;;;;;5023027;28;47789;-81
2024/01/16 06:30:34;;;;;;;;;89.67;70.00;;;;;;;;5052337;28;45326;-81
2024/01/16 06:32:59;;;;;;;;;86.75;69.00;;;;;;;;5044222;28;45406;-81
2024/01/16 06:35:25;;;;;;;;;90.25;69.25;;;;;;;;5034798;28;45662;-81
2024/01/16 06:37:50;;;;;;;;;89.00;68.25;;;;;;;;5039650;28;46966;-81
2024/01/16 06:40:15;;;;;;;;;91.33;69.33;;;;;;;;5047450;28;45441;-82
2024/01/16 06:42:40;;;;;;;;;86.33;68.00;;;;;;;;5046910;28;45227;-81
2024/01/16 06:45:06;;;;;;;;;91.00;71.00;;;;;;;;5040267;28;45301;-81
2024/01/16 06:47:32;;;;;;;;;85.00;66.00;;;;;;;;5059165;28;46036;-81
2024/01/16 06:49:57;;;;;;;;;85.25;65.00;;;;;;;;5058027;28;45297;-81
2024/01/16 06:52:22;;;;;;;;;81.67;63.67;;;;;;;;5052215;28;45211;-80
2024/01/16 06:54:48;;;;;;;;;85.33;69.00;;;;;;;;5044514;28;45440;-81
2024/01/16 06:57:13;;;;;;;;;88.00;68.00;;;;;;;;5045142;28;46035;-83
2024/01/16 06:59:38;;;;;;;;;87.33;65.00;;;;;;;;5026571;28;45261;-82
2024/01/16 07:02:03;;;;;;;;;82.33;66.00;;;;;;;;5031700;28;45268;-82
2024/01/16 07:04:29;;;;;;;;;88.33;65.00;;;;;;;;5037831;28;45253;-82
2024/01/16 07:06:54;;;;;;;;;88.50;70.00;;;;;;;;5041540;28;47603;-82
2024/01/16 07:09:20;;;;;;;;;90.67;70.33;;;;;;;;5059403;28;45274;-82
2024/01/16 07:11:46;;;;;;;;;86.25;69.75;;;;;;;;5036771;28;45353;-82
2024/01/16 07:14:11;;;;;;;;;92.50;72.75;;;;;;;;5055189;28;45469;-82
2024/01/16 07:16:37;;;;;;;;;85.75;64.25;;;;;;;;5035754;28;47118;-81
2024/01/16 07:19:02;;;;;;;;;90.50;69.50;;;;;;;;5052544;28;45423;-81
2024/01/16 07:21:28;;;;;;;;;93.67;72.33;;;;;;;;5039324;28;45469;-81
2024/01/16 07:23:53;;;;;;;;;90.75;70.25;;;;;;;;5035089;28;45436;-81
2024/01/16 07:26:18;;;;;;;;;80.25;64.00;;;;;;;;5039084;28;46101;-81
2024/01/16 07:28:43;;;;;;;;;77.67;60.67;;;;;;;;5037603;28;45308;-82
2024/01/16 07:31:09;;;;;;;;;73.67;60.00;;;;;;;;5039407;28;45691;-81
2024/01/16 07:33:34;;;;;;;;;71.50;57.25;;;;;;;;5052481;28;45335;-82
2024/01/16 07:36:00;;;;;;;;;66.00;56.00;;;;;;;;5039303;28;45322;-82
2024/01/16 07:38:25;;;;;;;;;74.00;58.33;;;;;;;;5024336;28;45209;-81
2024/01/16 07:40:50;;;;;;;;;61.00;46.33;;;;;;;;5049698;28;45366;-81
2024/01/16 07:43:15;;;;;;;;;72.75;57.75;;;;;;;;5051830;28;45545;-81
2024/01/16 07:45:40;;;;;;;;;70.00;56.00;;;;;;;;5038473;28;45629;-82
2024/01/16 07:48:06;;;;;;;;;61.33;49.67;;;;;;;;5033758;28;46152;-81
2024/01/16 07:50:31;;;;;;;;;62.67;54.00;;;;;;;;5059454;28;45235;-82
2024/01/16 07:52:56;;;;;;;;;70.33;55.67;;;;;;;;5028781;28;45556;-82
2024/01/16 07:55:21;;;;;;;;;67.00;55.00;;;;;;;;5034813;28;45613;-81
2024/01/16 07:57:47;;;;;;;;;66.67;52.00;;;;;;;;5037836;28;45280;-82
2024/01/16 08:00:12;;;;;;;;;64.33;54.00;;;;;;;;5043454;28;46280;-81
2024/01/16 08:02:37;;;;;;;;;52.75;43.00;;;;;;;;5036288;28;45275;-82
2024/01/16 08:05:03;;;;;;;;;72.33;60.00;;;;;;;;5034338;28;45515;-81
2024/01/16 08:07:28;;;;;;;;;68.50;55.75;;;;;;;;5047461;28;45333;-81
2024/01/16 08:09:53;;;;;;;;;76.33;58.33;;;;;;;;5042537;28;45593;-80
2024/01/16 08:12:18;;;;;;;;;72.67;58.67;;;;;;;;5043904;28;45395;-80
2024/01/16 08:14:44;;;;;;;;;74.00;60.00;;;;;;;;5024001;28;48046;-80
2024/01/16 08:17:09;;;;;;;;;74.75;58.75;;;;;;;;5027401;28;45394;-79
2024/01/16 08:19:35;;;;;;;;;74.67;57.00;;;;;;;;5024535;28;45463;-79
2024/01/16 08:22:02;;;;;;;;;72.00;58.25;;;;;;;;5039734;28;45469;-79
2024/01/16 08:24:27;;;;;;;;;72.00;58.50;;;;;;;;5044360;28;45433;-79
2024/01/16 08:26:52;;;;;;;;;75.33;60.33;;;;;;;;5033821;28;45713;-79
2024/01/16 08:29:17;;;;;;;;;80.00;60.33;;;;;;;;5030394;28;45318;-79
2024/01/16 08:31:42;;;;;;;;;78.67;59.67;;;;;;;;5051533;28;45443;-79
2024/01/16 08:34:08;;;;;;;;;75.33;60.33;;;;;;;;5048106;28;46524;-79
2024/01/16 08:36:33;;;;;;;;;74.00;60.33;;;;;;;;5043383;28;45592;-79
2024/01/16 08:38:58;;;;;;;;;85.00;66.33;;;;;;;;5023189;28;45363;-79
2024/01/16 08:41:23;;;;;;;;;87.67;67.67;;;;;;;;5041470;28;45292;-79
2024/01/16 08:43:48;;;;;;;;;86.67;67.33;;;;;;;;5041084;28;45604;-79
2024/01/16 08:46:15;;;;;;;;;98.00;75.33;;;;;;;;5023733;28;45397;-79
2024/01/16 08:48:41;;;;;;;;;94.00;73.75;;;;;;;;5041712;28;45355;-79
2024/01/16 08:51:07;;;;;;;;;94.25;70.75;;;;;;;;5038387;28;45316;-79
2024/01/16 08:53:34;;;;;;;;;90.50;70.50;;;;;;;;5028611;28;47204;-79
2024/01/16 08:55:59;;;;;;;;;88.25;69.50;;;;;;;;5041354;28;45931;-79
2024/01/16 08:58:24;;;;;;;;;94.67;73.67;;;;;;;;5028663;28;45331;-79
2024/01/16 09:00:49;;;;;;;;;98.00;77.67;;;;;;;;5043264;28;45386;-79
2024/01/16 09:03:15;;;;;;;;;95.00;74.67;;;;;;;;5048783;28;46382;-79
2024/01/16 09:05:40;;;;;;;;;100.00;81.00;;;;;;;;5052278;28;45368;-79
2024/01/16 09:08:05;;;;;;;;;98.00;77.33;;;;;;;;5052931;28;45474;-79
2024/01/16 09:10:30;;;;;;;;;102.33;79.00;;;;;;;;5054735;28;45420;-79
2024/01/16 09:12:55;;;;;;;;;98.67;78.33;;;;;;;;5039578;28;45413;-79
2024/01/16 09:15:21;;;;;;;;;91.67;73.33;;;;;;;;5052786;28;45354;-79
2024/01/16 09:17:46;;;;;;;;;91.67;71.00;;;;;;;;5046492;28;45519;-79
2024/01/16 09:20:12;;;;;;;;;102.50;79.25;;;;;;;;5038674;28;45374;-79
2024/01/16 09:22:37;;;;;;;;;99.50;76.75;;;;;;;;5028433;28;47367;-79
2024/01/16 09:25:02;;;;;;;;;94.00;74.33;;;;;;;;5039813;28;45358;-79
2024/01/16 09:27:27;;;;;;;;;91.67;72.33;;;;;;;;5022892;28;45351;-79
2024/01/16 09:29:52;;;;;;;;;93.67;75.67;;;;;;;;5024174;28;45402;-79
2024/01/16 09:32:18;;;;;;;;;95.00;74.00;;;;;;;;5028330;28;48318;-79
2024/01/16 09:34:44;;;;;;;;;92.75;72.75;;;;;;;;5044015;28;45323;-79
2024/01/16 09:37:09;;;;;;;;;91.00;71.00;;;;;;;;5023501;28;45325;-79
2024/01/16 09:39:35;;;;;;;;;93.00;73.67;;;;;;;;5040174;28;45319;-79
2024/01/16 09:42:01;;;;;;;;;95.25;72.00;;;;;;;;5040140;28;45280;-79
2024/01/16 09:44:27;;;;;;;;;102.00;80.75;;;;;;;;5045534;28;45477;-79
2024/01/16 09:46:52;;;;;;;;;99.25;77.50;;;;;;;;5047904;28;45384;-78
2024/01/16 09:49:18;;;;;;;;;98.25;78.00;;;;;;;;5039978;28;45326;-78
2024/01/16 09:51:43;;;;;;;;;92.67;72.33;;;;;;;;5013117;28;47230;-78
2024/01/16 09:54:08;;;;;;;;;95.50;73.75;;;;;;;;5034033;28;45253;-78
2024/01/16 09:56:36;;;;;;;;;90.25;70.00;;;;;;;;5025637;28;45303;-78
2024/01/16 09:59:05;;;;;;;;;88.25;69.50;;;;;;;;5021793;28;45343;-78
2024/01/16 10:01:30;;;;;;;;;86.50;68.75;;;;;;;;5039655;28;45372;-78
2024/01/16 10:03:55;;;;;;;;;82.75;65.75;;;;;;;;5046325;28;45311;-78
2024/01/16 10:06:22;;;;;;;;;63.00;51.67;;;;;;;;5026510;28;45193;-78
2024/01/16 10:08:47;;;;;;;;;64.50;55.25;;;;;;;;5042560;28;45256;-78
2024/01/16 10:11:13;;;;;;;;;73.33;55.67;;;;;;;;5039971;28;46055;-78
2024/01/16 10:13:38;;;;;;;;;76.00;62.00;;;;;;;;5048393;28;45328;-78
2024/01/16 10:16:03;;;;;;;;;76.75;62.25;;;;;;;;5027508;28;45283;-79
2024/01/16 10:18:33;;;;;;;;;81.33;66.67;;;;;;;;5046969;28;45267;-79
2024/01/16 10:20:59;;;;;;;;;83.25;65.50;;;;;;;;5025384;28;47344;-78
2024/01/16 10:23:27;;;;;;;;;83.00;64.33;;;;;;;;5045039;28;45361;-78
2024/01/16 10:26:11;;;;;;;;;84.00;66.75;;;;;;;;5044005;28;45255;-78
2024/01/16 10:28:40;;;;;;;;;77.50;62.00;;;;;;;;5021213;28;45489;-78
2024/01/16 10:31:10;;;;;;;;;83.75;67.75;;;;;;;;5039558;28;46713;-78
2024/01/16 10:33:38;;;;;;;;;84.25;65.00;;;;;;;;5021619;28;45989;-78
2024/01/16 10:36:23;;;;;;;;;86.25;65.25;;;;;;;;5021562;28;45201;-78
2024/01/16 10:38:54;;;;;;;;;87.75;68.75;;;;;;;;5025705;28;45340;-78
2024/01/16 10:41:24;;;;;;;;;86.75;66.50;;;;;;;;5039553;28;46248;-81
2024/01/16 10:44:02;;;;;;;;;86.50;66.75;;;;;;;;5039183;28;45888;-81
2024/01/16 10:46:27;;;;;;;;;86.50;67.25;;;;;;;;5022463;28;45334;-81
2024/01/16 10:49:00;;;;;;;;;91.00;70.00;;;;;;;;5043658;28;45477;-81
2024/01/16 10:51:26;;;;;;;;;88.00;69.50;;;;;;;;5011826;28;47331;-80
2024/01/16 10:53:55;;;;;;;;;87.00;69.00;;;;;;;;5039825;28;45840;-80
2024/01/16 10:56:20;;;;;;;;;88.25;68.00;;;;;;;;5044431;28;45329;-81
2024/01/16 10:58:49;;;;;;;;;87.00;67.00;;;;;;;;5039182;28;46393;-81
2024/01/16 11:01:15;;;;;;;;;86.25;68.00;;;;;;;;5039681;28;45327;-81
2024/01/16 11:03:47;;;;;;;;;92.75;69.75;;;;;;;;5041515;28;45473;-81
2024/01/16 11:06:14;;;;;;;;;85.75;68.75;;;;;;;;5027448;28;45209;-81
2024/01/16 11:08:40;;;;;;;;;85.00;69.00;;;;;;;;5022290;28;46156;-81
2024/01/16 11:11:05;;;;;;;;;91.00;72.00;;;;;;;;5021613;28;47229;-81
2024/01/16 11:13:32;;;;;;;;;96.00;70.00;;;;;;;;5047981;28;45516;-81
2024/01/16 11:15:57;;;;;;;;;91.25;71.50;;;;;;;;5058789;28;45397;-81
2024/01/16 11:18:24;;;;;;;;;96.33;71.33;;;;;;;;5038905;28;45300;-81
2024/01/16 11:20:50;;;;;;;;;86.25;66.75;;;;;;;;5057146;28;45446;-81
2024/01/16 11:23:16;;;;;;;;;83.00;64.75;;;;;;;;5036148;28;45223;-81
2024/01/16 11:25:41;;;;;;;;;87.75;68.00;;;;;;;;5045261;28;45527;-81
2024/01/16 11:28:11;;;;;;;;;87.67;69.33;;;;;;;;5039281;28;45540;-81
2024/01/16 11:30:36;;;;;;;;;79.75;63.50;;;;;;;;5044998;28;46128;-81
2024/01/16 11:33:02;;;;;;;;;84.75;66.50;;;;;;;;5040460;28;45327;-81
2024/01/16 11:35:36;;;;;;;;;84.50;65.50;;;;;;;;5051893;28;45409;-81
2024/01/16 11:38:05;;;;;;;;;30.50;28.50;;;;;;;;5031415;28;45314;-81
2024/01/16 11:40:32;;;;;;;;;84.25;64.50;;;;;;;;5049947;28;45995;-81
2024/01/16 11:42:57;;;;;;;;;76.50;60.00;;;;;;;;5031745;28;46044;-81
2024/01/16 11:45:31;;;;;;;;;84.00;65.67;;;;;;;;5045959;28;45235;-81
2024/01/16 11:48:09;;;;;;;;;76.00;61.25;;;;;;;;5025483;28;45270;-81
2024/01/16 11:50:34;;;;;;;;;76.00;58.00;;;;;;;;5022628;28;48018;-81
2024/01/16 11:53:00;;;;;;;;;75.33;60.00;;;;;;;;5052084;28;45225;-81
2024/01/16 11:55:30;;;;;;;;;73.33;59.00;;;;;;;;5032731;28;45282;-81
2024/01/16 11:58:11;;;;;;;;;65.75;52.50;;;;;;;;5033084;28;45267;-81
2024/01/16 12:00:40;;;;;;;;;59.75;50.75;;;;;;;;5028475;28;47248;-81
2024/01/16 12:03:06;;;;;;;;;67.75;56.25;;;;;;;;5049308;28;45984;-81
2024/01/16 12:05:32;;;;;;;;;64.50;51.50;;;;;;;;5050232;28;45209;-81
2024/01/16 12:07:57;;;;;;;;;57.75;48.75;;;;;;;;5028088;28;45474;-81
2024/01/16 12:10:23;;;;;;;;;62.00;50.67;;;;;;;;5044771;28;45385;-81
2024/01/16 12:12:49;;;;;;;;;29.50;28.50;;;;;;;;5036754;28;45386;-81
2024/01/16 12:15:18;;;;;;;;;32.75;31.75;;;;;;;;5038990;28;45413;-83
2024/01/16 12:17:59;;;;;;;;;21.00;17.75;;;;;;;;5040816;28;45485;-84
2024/01/16 12:20:25;;;;;;;;;14.25;9.75;;;;;;;;5032335;28;48347;-83
2024/01/16 12:23:01;;;;;;;;;17.75;17.75;;;;;;;;5041751;28;45298;-84
2024/01/16 12:25:27;;;;;;;;;14.75;14.75;;;;;;;;5025125;28;45389;-83
2024/01/16 12:27:59;;;;;;;;;12.50;11.00;;;;;;;;5015390;28;45473;-84
2024/01/16 12:30:25;;;;;;;;;15.00;12.00;;;;;;;;5021063;28;47311;-84
2024/01/16 12:32:51;;;;;;;;;10.00;8.00;;;;;;;;5022077;28;45305;-84
2024/01/16 12:35:20;;;;;;;;;6.25;5.00;;;;;;;;5035115;28;45344;-84
2024/01/16 12:37:57;;;;;;;;;24.25;21.50;;;;;;;;5030478;28;45434;-84
2024/01/16 12:40:22;;;;;;;;;32.75;27.50;;;;;;;;5034000;28;47733;-84
2024/01/16 12:42:49;;;;;;;;;34.33;32.00;;;;;;;;5049396;28;45217;-84
2024/01/16 12:45:14;;;;;;;;;34.75;31.75;;;;;;;;5051990;28;45326;-84
2024/01/16 12:47:40;;;;;;;;;34.25;30.25;;;;;;;;5050666;28;46475;-81
2024/01/16 12:50:05;;;;;;;;;36.33;30.00;;;;;;;;5042844;28;46020;-81
2024/01/16 12:52:31;;;;;;;;;31.75;29.00;;;;;;;;5028297;28;45926;-81
2024/01/16 12:55:04;;;;;;;;;33.75;29.00;;;;;;;;5041417;28;45267;-81
2024/01/16 12:57:30;;;;;;;;;26.75;26.75;;;;;;;;5022783;28;45642;-81
2024/01/16 12:59:57;;;;;;;;;29.00;27.50;;;;;;;;5051402;28;45910;-82
2024/01/16 13:02:23;;;;;;;;;39.25;38.00;;;;;;;;5033634;28;45848;-82
2024/01/16 13:04:48;;;;;;;;;47.50;31.25;;;;;;;;5051211;28;45314;-81
2024/01/16 13:07:17;;;;;;;;;38.00;34.00;;;;;;;;5030214;28;45347;-81
2024/01/16 13:09:43;;;;;;;;;37.25;35.00;;;;;;;;5047291;28;46035;-81
2024/01/16 13:12:08;;;;;;;;;39.33;34.33;;;;;;;;5041139;28;45340;-81
2024/01/16 13:14:34;;;;;;;;;41.67;38.67;;;;;;;;5028337;28;45435;-82
2024/01/16 13:17:01;;;;;;;;;37.00;31.00;;;;;;;;5044825;28;45465;-81
2024/01/16 13:19:26;;;;;;;;;31.50;30.00;;;;;;;;5032362;28;47941;-81
2024/01/16 13:21:52;;;;;;;;;35.50;27.50;;;;;;;;5051435;28;45291;-81
2024/01/16 13:24:21;;;;;;;;;38.25;32.00;;;;;;;;5038588;28;45385;-81
2024/01/16 13:26:46;;;;;;;;;33.00;32.25;;;;;;;;5035772;28;45454;-84
2024/01/16 13:29:11;;;;;;;;;29.33;28.00;;;;;;;;5033356;28;47265;-81
2024/01/16 13:31:36;;;;;;;;;34.50;31.50;;;;;;;;5049256;28;45539;-81
2024/01/16 13:34:02;;;;;;;;;29.50;26.50;;;;;;;;5031699;28;45291;-81
2024/01/16 13:36:27;;;;;;;;;29.75;27.00;;;;;;;;5053254;28;45553;-83
2024/01/16 13:38:53;;;;;;;;;31.75;30.50;;;;;;;;5052604;28;45988;-81
2024/01/16 13:41:18;;;;;;;;;28.00;28.00;;;;;;;;5036116;28;46270;-84
2024/01/16 13:43:43;;;;;;;;;25.33;23.00;;;;;;;;5052596;28;45433;-84
2024/01/16 13:46:10;;;;;;;;;26.67;22.00;;;;;;;;5044559;28;45561;-81
2024/01/16 13:48:35;;;;;;;;;38.00;31.50;;;;;;;;5052587;28;45975;-81
2024/01/16 13:51:00;;;;;;;;;26.75;23.50;;;;;;;;5044882;28;45709;-82
2024/01/16 13:53:26;;;;;;;;;20.50;18.75;;;;;;;;5038637;28;45421;-83
2024/01/16 13:55:51;;;;;;;;;31.00;26.67;;;;;;;;5040710;28;45449;-80
2024/01/16 13:58:16;;;;;;;;;26.00;22.25;;;;;;;;5031638;28;46477;-81
2024/01/16 14:00:41;;;;;;;;;34.00;28.33;;;;;;;;5026841;28;46056;-82
2024/01/16 14:03:07;;;;;;;;;21.50;21.50;;;;;;;;5028986;28;45461;-81
2024/01/16 14:05:32;;;;;;;;;20.00;15.00;;;;;;;;5044658;28;45642;-83
2024/01/16 14:07:57;;;;;;;;;14.00;13.50;;;;;;;;5036932;28;46592;-84